Observation data for Friona on 02/24/2021      Previous  Date  Next       Current Mesonet Observations  Soil Data  Daily Summary Page  Observations in Plain Language
KFAS 240600Z 28007KT 08/M08 A299 RMK A01 T00771082  RH  031%=      5-min Rain = 0
KFAS 240605Z 30006KT 07/M09 A299 RMK A01 T00681088  RH  032%=      5-min Rain = 0
KFAS 240610Z 27008KT 07/M09 A299 RMK A01 T00651088  RH  032%=      5-min Rain = 0
KFAS 240615Z 27010KT 08/M08 A299 RMK A01 T00761082  RH  032%=      5-min Rain = 0
KFAS 240620Z 27009KT 08/M08 A2991 RMK A01 T00791079  RH  032%=      5-min Rain = 0
KFAS 240625Z 28008KT 07/M08 A2991 RMK A01 T00741080  RH  033%=      5-min Rain = 0
KFAS 240630Z 29009KT 07/M08 A2992 RMK A01 T00651082  RH  034%=      5-min Rain = 0
KFAS 240635Z 29009KT 06/M08 A2992 RMK A01 T00631079  RH  035%=      5-min Rain = 0
KFAS 240640Z 27009KT 07/M07 A2991 RMK A01 T00711073  RH  035%=      5-min Rain = 0
KFAS 240645Z 27010KT 07/M07 A2991 RMK A01 T00731070  RH  035%=      5-min Rain = 0
KFAS 240650Z 28011KT 08/M07 A2992 RMK A01 T00761069  RH  035%=      5-min Rain = 0
KFAS 240655Z 32013G18KT 07/M07 A2994 RMK A01 T00721070  RH  036%=      5-min Rain = 0
KFAS 240700Z 33018G23KT 09/M06 A2995 RMK A01 T00851061  RH  035%=      5-min Rain = 0
KFAS 240705Z 34015G21KT 09/M06 A2996 RMK A01 T00861061  RH  035%=      5-min Rain = 0
KFAS 240710Z 35016KT 08/M06 A2996 RMK A01 T00831057  RH  037%=      5-min Rain = 0
KFAS 240715Z 35017G23KT 08/M05 A2997 RMK A01 T00801053  RH  039%=      5-min Rain = 0
KFAS 240720Z 00016KT 07/M05 A2998 RMK A01 T00741051  RH  041%=      5-min Rain = 0
KFAS 240725Z 01016KT 07/M05 A2998 RMK A01 T00691051  RH  042%=      5-min Rain = 0
KFAS 240730Z 01017KT 07/M05 A2998 RMK A01 T00671050  RH  043%=      5-min Rain = 0
KFAS 240735Z 00018KT 07/M05 A2998 RMK A01 T00671049  RH  043%=      5-min Rain = 0
KFAS 240740Z 00017G26KT 07/M05 A2998 RMK A01 T00651048  RH  044%=      5-min Rain = 0
KFAS 240745Z 01020G25KT 07/M05 A2999 RMK A01 T00651048  RH  045%=      5-min Rain = 0
KFAS 240750Z 01019KT 06/M05 A2999 RMK A01 T00631048  RH  045%=      5-min Rain = 0
KFAS 240755Z 01020G26KT 06/M05 A30 RMK A01 T00611048  RH  046%=      5-min Rain = 0
KFAS 240800Z 01019KT 06/M05 A30 RMK A01 T00601048  RH  046%=      5-min Rain = 0
KFAS 240805Z 00018G23KT 06/M05 A30 RMK A01 T00561047  RH  047%=      5-min Rain = 0
KFAS 240810Z 01018KT 06/M05 A30 RMK A01 T00561047  RH  048%=      5-min Rain = 0
KFAS 240815Z 01017KT 05/M05 A30 RMK A01 T00531047  RH  048%=      5-min Rain = 0
KFAS 240820Z 01016KT 05/M05 A30 RMK A01 T00501047  RH  049%=      5-min Rain = 0
KFAS 240825Z 01016KT 05/M05 A3001 RMK A01 T00481047  RH  050%=      5-min Rain = 0
KFAS 240830Z 01015KT 05/M05 A3001 RMK A01 T00471047  RH  051%=      5-min Rain = 0
KFAS 240835Z 02016KT 05/M05 A3001 RMK A01 T00461047  RH  051%=      5-min Rain = 0
KFAS 240840Z 01016KT 05/M05 A3002 RMK A01 T00451047  RH  052%=      5-min Rain = 0
KFAS 240845Z 00015KT 04/M05 A3002 RMK A01 T00431046  RH  053%=      5-min Rain = 0
KFAS 240850Z 01016KT 04/M05 A3002 RMK A01 T00431045  RH  053%=      5-min Rain = 0
KFAS 240855Z 01016KT 04/M05 A3002 RMK A01 T00421045  RH  053%=      5-min Rain = 0
KFAS 240900Z 00015KT 04/M05 A3002 RMK A01 T00391045  RH  054%=      5-min Rain = 0
KFAS 240905Z 01013KT 04/M05 A3003 RMK A01 T00371045  RH  055%=      5-min Rain = 0
KFAS 240910Z 02013KT 04/M05 A3003 RMK A01 T00351046  RH  056%=      5-min Rain = 0
KFAS 240915Z 02012KT 04/M05 A3003 RMK A01 T00351046  RH  056%=      5-min Rain = 0
KFAS 240920Z 02013G18KT 03/M05 A3004 RMK A01 T00341047  RH  056%=      5-min Rain = 0
KFAS 240925Z 01015KT 03/M05 A3004 RMK A01 T00331047  RH  056%=      5-min Rain = 0
KFAS 240930Z 01014KT 03/M05 A3004 RMK A01 T00301047  RH  057%=      5-min Rain = 0
KFAS 240935Z 01013KT 03/M05 A3005 RMK A01 T00291047  RH  058%=      5-min Rain = 0
KFAS 240940Z 00010KT 03/M05 A3005 RMK A01 T00251048  RH  059%=      5-min Rain = 0
KFAS 240945Z 00010KT 02/M05 A3006 RMK A01 T00221047  RH  060%=      5-min Rain = 0
KFAS 240950Z 01013KT 03/M05 A3006 RMK A01 T00261046  RH  059%=      5-min Rain = 0
KFAS 240955Z 01014KT 03/M05 A3007 RMK A01 T00281046  RH  058%=      5-min Rain = 0
KFAS 241000Z 01012KT 03/M05 A3007 RMK A01 T00261048  RH  059%=      5-min Rain = 0
KFAS 241005Z 00011KT 02/M05 A3007 RMK A01 T00231048  RH  060%=      5-min Rain = 0
KFAS 241010Z 01012KT 02/M05 A3008 RMK A01 T00241047  RH  060%=      5-min Rain = 0
KFAS 241015Z 00012KT 02/M05 A3007 RMK A01 T00241048  RH  059%=      5-min Rain = 0
KFAS 241020Z 00011KT 02/M05 A3008 RMK A01 T00231048  RH  060%=      5-min Rain = 0
KFAS 241025Z 00011KT 02/M05 A3008 RMK A01 T00221049  RH  060%=      5-min Rain = 0
KFAS 241030Z 36011KT 02/M05 A3008 RMK A01 T00201050  RH  060%=      5-min Rain = 0
KFAS 241035Z 35011G16KT 02/M05 A3008 RMK A01 T00191050  RH  060%=      5-min Rain = 0
KFAS 241040Z 36010KT 02/M05 A3008 RMK A01 T00191050  RH  060%=      5-min Rain = 0
KFAS 241045Z 36010KT 02/M05 A3009 RMK A01 T00191051  RH  060%=      5-min Rain = 0
KFAS 241050Z 35009KT 02/M05 A3009 RMK A01 T00161052  RH  061%=      5-min Rain = 0
KFAS 241055Z 35008KT 01/M06 A3009 RMK A01 T00091056  RH  062%=      5-min Rain = 0
KFAS 241100Z 35010KT 01/M05 A3009 RMK A01 T00081054  RH  063%=      5-min Rain = 0
KFAS 241105Z 35011KT 01/M05 A3009 RMK A01 T00081054  RH  063%=      5-min Rain = 0
KFAS 241110Z 35011KT 01/M05 A301 RMK A01 T00101053  RH  063%=      5-min Rain = 0
KFAS 241115Z 36011KT 01/M05 A301 RMK A01 T00111053  RH  062%=      5-min Rain = 0
KFAS 241120Z 35012KT 01/M05 A301 RMK A01 T00141053  RH  061%=      5-min Rain = 0
KFAS 241125Z 35011KT 01/M05 A3011 RMK A01 T00111054  RH  062%=      5-min Rain = 0
KFAS 241130Z 34011KT 00/M06 A3011 RMK A01 T00021056  RH  065%=      5-min Rain = 0
KFAS 241135Z 35011KT 00/M05 A3011 RMK A01 T00031054  RH  066%=      5-min Rain = 0
KFAS 241140Z 35010KT 00/M06 A3011 RMK A01 T00031055  RH  065%=      5-min Rain = 0
KFAS 241145Z 35011KT 00/M06 A3011 RMK A01 T00021056  RH  065%=      5-min Rain = 0
KFAS 241150Z 35010KT 00/M06 A3012 RMK A01 T00021057  RH  065%=      5-min Rain = 0
KFAS 241155Z 35010KT 00/06 A3012 RMK A01 T00-00-58  RH  065%=      5-min Rain = 0
KFAS 241200Z 36011KT 00/M06 A3012 RMK A01 T00021058  RH  064%=      5-min Rain = 0
KFAS 241205Z 36011KT 00/M06 A3012 RMK A01 T00031058  RH  064%=      5-min Rain = 0
KFAS 241210Z 35010KT 00/06 A3013 RMK A01 T00-00-60  RH  064%=      5-min Rain = 0
KFAS 241215Z 35009KT M01/M06 A3013 RMK A01 T10051061  RH  066%=      5-min Rain = 0
KFAS 241220Z 34008KT M01/M06 A3013 RMK A01 T10111063  RH  068%=      5-min Rain = 0
KFAS 241225Z 34010KT M01/M06 A3014 RMK A01 T10131062  RH  069%=      5-min Rain = 0
KFAS 241230Z 34009KT M02/M06 A3014 RMK A01 T10151063  RH  070%=      5-min Rain = 0
KFAS 241235Z 34010KT M02/M06 A3014 RMK A01 T10151063  RH  070%=      5-min Rain = 0
KFAS 241240Z 34011KT M01/M06 A3014 RMK A01 T10141063  RH  069%=      5-min Rain = 0
KFAS 241245Z 34011KT M02/M07 A3014 RMK A01 T10161065  RH  069%=      5-min Rain = 0
KFAS 241250Z 34010KT M02/M07 A3014 RMK A01 T10181066  RH  070%=      5-min Rain = 0
KFAS 241255Z 34009KT M02/M07 A3014 RMK A01 T10211067  RH  071%=      5-min Rain = 0
KFAS 241300Z 34010KT M02/M07 A3014 RMK A01 T10221067  RH  071%=      5-min Rain = 0
KFAS 241305Z 34010KT M02/M07 A3015 RMK A01 T10231068  RH  071%=      5-min Rain = 0
KFAS 241310Z 34010KT M02/M07 A3015 RMK A01 T10231069  RH  071%=      5-min Rain = 0
KFAS 241315Z 34011KT M02/M07 A3015 RMK A01 T10241069  RH  071%=      5-min Rain = 0
KFAS 241320Z 34011KT M02/M07 A3015 RMK A01 T10241070  RH  071%=      5-min Rain = 0
KFAS 241325Z 34011KT M02/M07 A3016 RMK A01 T10241070  RH  071%=      5-min Rain = 0
KFAS 241330Z 34012KT M02/M07 A3016 RMK A01 T10221069  RH  070%=      5-min Rain = 0
KFAS 241335Z 35013KT M02/M07 A3016 RMK A01 T10191069  RH  069%=      5-min Rain = 0
KFAS 241340Z 34011KT M02/M07 A3017 RMK A01 T10171070  RH  067%=      5-min Rain = 0
KFAS 241345Z 34011KT M02/M07 A3017 RMK A01 T10211071  RH  068%=      5-min Rain = 0
KFAS 241350Z 34010KT M02/M07 A3018 RMK A01 T10211070  RH  069%=      5-min Rain = 0
KFAS 241355Z 34011KT M02/M07 A3018 RMK A01 T10181069  RH  068%=      5-min Rain = 0
KFAS 241400Z 35011KT M02/M07 A3018 RMK A01 T10161069  RH  067%=      5-min Rain = 0
KFAS 241405Z 35011KT M01/M07 A3019 RMK A01 T10121068  RH  066%=      5-min Rain = 0
KFAS 241410Z 36014KT M01/M07 A3019 RMK A01 T10051068  RH  063%=      5-min Rain = 0
KFAS 241415Z 00015KT 00/M07 A3019 RMK A01 T00031069  RH  059%=      5-min Rain = 0
KFAS 241420Z 36015KT 01/M07 A3019 RMK A01 T00061070  RH  057%=      5-min Rain = 0
KFAS 241425Z 36014KT 01/M07 A302 RMK A01 T00061069  RH  057%=      5-min Rain = 0
KFAS 241430Z 36014KT 01/M07 A302 RMK A01 T00081069  RH  057%=      5-min Rain = 0
KFAS 241435Z 35015KT 01/M07 A3021 RMK A01 T00111069  RH  055%=      5-min Rain = 0
KFAS 241440Z 36015G20KT 01/M07 A3021 RMK A01 T00121069  RH  055%=      5-min Rain = 0
KFAS 241445Z 36014KT 02/M07 A3021 RMK A01 T00161068  RH  054%=      5-min Rain = 0
KFAS 241450Z 35015KT 02/M07 A3022 RMK A01 T00161070  RH  053%=      5-min Rain = 0
KFAS 241455Z 35014KT 02/M07 A3022 RMK A01 T00191069  RH  052%=      5-min Rain = 0
KFAS 241500Z 35014G19KT 02/M07 A3022 RMK A01 T00201069  RH  052%=      5-min Rain = 0
KFAS 241505Z 01014G21KT 02/M07 A3022 RMK A01 T00221067  RH  052%=      5-min Rain = 0
KFAS 241510Z 01017G22KT 03/M07 A3022 RMK A01 T00251070  RH  050%=      5-min Rain = 0
KFAS 241515Z 01017KT 03/M07 A3022 RMK A01 T00271071  RH  049%=      5-min Rain = 0
KFAS 241520Z 01017G23KT 03/M07 A3023 RMK A01 T00291069  RH  048%=      5-min Rain = 0
KFAS 241525Z 01018G23KT 03/M07 A3023 RMK A01 T00301069  RH  048%=      5-min Rain = 0
KFAS 241530Z 01017KT 03/M07 A3023 RMK A01 T00321070  RH  047%=      5-min Rain = 0
KFAS 241535Z 02017KT 03/M07 A3023 RMK A01 T00321071  RH  047%=      5-min Rain = 0
KFAS 241540Z 02018KT 04/M07 A3022 RMK A01 T00351071  RH  046%=      5-min Rain = 0
KFAS 241545Z 02018KT 04/M07 A3022 RMK A01 T00371070  RH  045%=      5-min Rain = 0
KFAS 241550Z 02017G22KT 04/M07 A3022 RMK A01 T00371070  RH  046%=      5-min Rain = 0
KFAS 241555Z 02016KT 04/M07 A3022 RMK A01 T00381068  RH  046%=      5-min Rain = 0
KFAS 241600Z 02015G20KT 04/M07 A3022 RMK A01 T00441065  RH  045%=      5-min Rain = 0
KFAS 241605Z 02016KT 05/M07 A3022 RMK A01 T00451070  RH  043%=      5-min Rain = 0
KFAS 241610Z 03015KT 05/M07 A3022 RMK A01 T00471069  RH  043%=      5-min Rain = 0
KFAS 241615Z 02015G20KT 05/M07 A3022 RMK A01 T00501068  RH  042%=      5-min Rain = 0
KFAS 241620Z 02015KT 05/M07 A3022 RMK A01 T00491070  RH  042%=      5-min Rain = 0
KFAS 241625Z 03014KT 05/M07 A3022 RMK A01 T00521069  RH  041%=      5-min Rain = 0
KFAS 241630Z 02014KT 05/M07 A3022 RMK A01 T00531069  RH  041%=      5-min Rain = 0
KFAS 241635Z 03014KT 06/M07 A3022 RMK A01 T00571068  RH  040%=      5-min Rain = 0
KFAS 241640Z 03014KT 06/M07 A3022 RMK A01 T00561069  RH  040%=      5-min Rain = 0
KFAS 241645Z 02013G19KT 06/M07 A3022 RMK A01 T00581069  RH  040%=      5-min Rain = 0
KFAS 241650Z 03012KT 06/M07 A3022 RMK A01 T00591069  RH  039%=      5-min Rain = 0
KFAS 241655Z 02013KT 07/M07 A3022 RMK A01 T00651067  RH  038%=      5-min Rain = 0
KFAS 241700Z 02013KT 06/M07 A3022 RMK A01 T00631069  RH  038%=      5-min Rain = 0
KFAS 241705Z 03012G19KT 07/M07 A3022 RMK A01 T00671068  RH  037%=      5-min Rain = 0
KFAS 241710Z 03012KT 07/M07 A3022 RMK A01 T00671071  RH  037%=      5-min Rain = 0
KFAS 241715Z 02012KT 07/M07 A3022 RMK A01 T00691070  RH  036%=      5-min Rain = 0
KFAS 241720Z 03012KT 07/M07 A3022 RMK A01 T00691070  RH  036%=      5-min Rain = 0
KFAS 241725Z 03012G17KT 07/M07 A3022 RMK A01 T00701072  RH  036%=      5-min Rain = 0
KFAS 241730Z 02013KT 07/M07 A3022 RMK A01 T00731070  RH  036%=      5-min Rain = 0
KFAS 241735Z 02013G19KT 08/M07 A3022 RMK A01 T00761072  RH  034%=      5-min Rain = 0
KFAS 241740Z 03012KT 08/M08 A3022 RMK A01 T00751077  RH  033%=      5-min Rain = 0
KFAS 241745Z 04013KT 08/M08 A3022 RMK A01 T00771077  RH  033%=      5-min Rain = 0
KFAS 241750Z 03012G17KT 08/M08 A3022 RMK A01 T00801076  RH  032%=      5-min Rain = 0
KFAS 241755Z 03012G17KT 08/M08 A3022 RMK A01 T00801077  RH  032%=      5-min Rain = 0
KFAS 241800Z 04011KT 08/M08 A3021 RMK A01 T00831076  RH  032%=      5-min Rain = 0
KFAS 241805Z 05012G18KT 09/M08 A3021 RMK A01 T00901081  RH  029%=      5-min Rain = 0
KFAS 241810Z 05011KT 09/M08 A3021 RMK A01 T00851083  RH  030%=      5-min Rain = 0
KFAS 241815Z 05012G17KT 09/M09 A302 RMK A01 T00861086  RH  029%=      5-min Rain = 0
KFAS 241820Z 06011KT 09/M09 A302 RMK A01 T00871091  RH  027%=      5-min Rain = 0
KFAS 241825Z 06012KT 09/M09 A302 RMK A01 T00911090  RH  027%=      5-min Rain = 0
KFAS 241830Z 06010G16KT 09/M09 A302 RMK A01 T00911091  RH  027%=      5-min Rain = 0
KFAS 241835Z 05013G18KT 09/M09 A302 RMK A01 T00911090  RH  027%=      5-min Rain = 0
KFAS 241840Z 06011G19KT 09/M09 A302 RMK A01 T00891092  RH  027%=      5-min Rain = 0
KFAS 241845Z 06011G16KT 09/M09 A302 RMK A01 T00911091  RH  026%=      5-min Rain = 0
KFAS 241850Z 08010G15KT 10/M09 A302 RMK A01 T00951092  RH  026%=      5-min Rain = 0
KFAS 241855Z 07010G15KT 10/M09 A302 RMK A01 T00961093  RH  025%=      5-min Rain = 0
KFAS 241900Z 06010KT 10/M09 A302 RMK A01 T00961093  RH  025%=      5-min Rain = 0
KFAS 241905Z 07010KT 10/M09 A302 RMK A01 T00961091  RH  026%=      5-min Rain = 0
KFAS 241910Z 08010G15KT 10/M09 A302 RMK A01 T00991091  RH  025%=      5-min Rain = 0
KFAS 241915Z 08009G14KT 10/M09 A3019 RMK A01 T00991093  RH  025%=      5-min Rain = 0
KFAS 241920Z 06010KT 10/M09 A3019 RMK A01 T01001090  RH  025%=      5-min Rain = 0
KFAS 241925Z 06010KT 10/M09 A3019 RMK A01 T01011088  RH  025%=      5-min Rain = 0
KFAS 241930Z 09007KT 10/M09 A3018 RMK A01 T00991089  RH  025%=      5-min Rain = 0
KFAS 241935Z 07007KT 10/M09 A3018 RMK A01 T01041089  RH  025%=      5-min Rain = 0
KFAS 241940Z 06010KT 10/M09 A3018 RMK A01 T01031091  RH  024%=      5-min Rain = 0
KFAS 241945Z 08008G13KT 10/M09 A3017 RMK A01 T01041093  RH  024%=      5-min Rain = 0
KFAS 241950Z 09007G13KT 11/M09 A3017 RMK A01 T01061094  RH  023%=      5-min Rain = 0
KFAS 241955Z 09006G12KT 11/M10 A3016 RMK A01 T01051098  RH  023%=      5-min Rain = 0
KFAS 242000Z 08010G17KT 11/M10 A3016 RMK A01 T01091096  RH  023%=      5-min Rain = 0
KFAS 242005Z 09008G14KT 11/M10 A3015 RMK A01 T01101096  RH  023%=      5-min Rain = 0
KFAS 242010Z 10008G15KT 11/M10 A3015 RMK A01 T01081100  RH  022%=      5-min Rain = 0
KFAS 242015Z 08010G15KT 11/M10 A3015 RMK A01 T01111095  RH  022%=      5-min Rain = 0
KFAS 242020Z 05005G10KT 11/M10 A3014 RMK A01 T01101096  RH  023%=      5-min Rain = 0
KFAS 242025Z 07008G13KT 12/M10 A3014 RMK A01 T01161097  RH  021%=      5-min Rain = 0
KFAS 242030Z 07010G16KT 12/M10 A3013 RMK A01 T01161099  RH  021%=      5-min Rain = 0
KFAS 242035Z 07012KT 12/M10 A3013 RMK A01 T01191098  RH  021%=      5-min Rain = 0
KFAS 242040Z 11009G14KT 12/M10 A3013 RMK A01 T01201100  RH  020%=      5-min Rain = 0
KFAS 242045Z 10010G16KT 12/M10 A3013 RMK A01 T01151102  RH  021%=      5-min Rain = 0
KFAS 242050Z 11011G17KT 12/M10 A3013 RMK A01 T01211096  RH  021%=      5-min Rain = 0
KFAS 242055Z 14010G15KT 12/M10 A3013 RMK A01 T01201099  RH  021%=      5-min Rain = 0
KFAS 242100Z 11007G17KT 12/M10 A3013 RMK A01 T01191098  RH  021%=      5-min Rain = 0
KFAS 242105Z 10010G15KT 12/M10 A3013 RMK A01 T01201097  RH  021%=      5-min Rain = 0
KFAS 242110Z 12010G16KT 12/M09 A3012 RMK A01 T01241094  RH  021%=      5-min Rain = 0
KFAS 242115Z 11012G18KT 13/M09 A3012 RMK A01 T01271094  RH  020%=      5-min Rain = 0
KFAS 242120Z 12008KT 12/M10 A3012 RMK A01 T01231096  RH  021%=      5-min Rain = 0
KFAS 242125Z 11009G14KT 13/M10 A3012 RMK A01 T01261095  RH  020%=      5-min Rain = 0
KFAS 242130Z 13008G13KT 12/M10 A3012 RMK A01 T01241095  RH  021%=      5-min Rain = 0
KFAS 242135Z 11008KT 12/M10 A3012 RMK A01 T01241096  RH  021%=      5-min Rain = 0
KFAS 242140Z 12010G15KT 12/M09 A3012 RMK A01 T01241094  RH  021%=      5-min Rain = 0
KFAS 242145Z 10006G11KT 13/M09 A3012 RMK A01 T01271094  RH  021%=      5-min Rain = 0
KFAS 242150Z 12007G13KT 13/M09 A3012 RMK A01 T01251093  RH  021%=      5-min Rain = 0
KFAS 242155Z 12008G13KT 12/M09 A3012 RMK A01 T01231092  RH  021%=      5-min Rain = 0
KFAS 242200Z 11006KT 12/M09 A3012 RMK A01 T01241090  RH  022%=      5-min Rain = 0
KFAS 242205Z 15009KT 13/M09 A3012 RMK A01 T01261089  RH  021%=      5-min Rain = 0
KFAS 242210Z 15007G13KT 13/M09 A3012 RMK A01 T01281088  RH  021%=      5-min Rain = 0
KFAS 242215Z 14009KT 13/M09 A3012 RMK A01 T01291088  RH  021%=      5-min Rain = 0
KFAS 242220Z 12006G12KT 13/M09 A3012 RMK A01 T01281089  RH  021%=      5-min Rain = 0
KFAS 242225Z 11007G12KT 13/M09 A3012 RMK A01 T01251089  RH  022%=      5-min Rain = 0
KFAS 242230Z 14008KT 13/M09 A3011 RMK A01 T01261088  RH  022%=      5-min Rain = 0
KFAS 242235Z 13009KT 13/M09 A3012 RMK A01 T01281086  RH  022%=      5-min Rain = 0
KFAS 242240Z 12010KT 13/M09 A3012 RMK A01 T01261087  RH  022%=      5-min Rain = 0
KFAS 242245Z 14009KT 13/M09 A3011 RMK A01 T01281085  RH  022%=      5-min Rain = 0
KFAS 242250Z 13007KT 13/M09 A3011 RMK A01 T01251087  RH  022%=      5-min Rain = 0
KFAS 242255Z 13010G17KT 13/M09 A3011 RMK A01 T01261085  RH  022%=      5-min Rain = 0
KFAS 242300Z 14009KT 13/M09 A3011 RMK A01 T01261086  RH  022%=      5-min Rain = 0
KFAS 242305Z 11009KT 12/M09 A3011 RMK A01 T01231087  RH  022%=      5-min Rain = 0
KFAS 242310Z 12009G14KT 13/M08 A3011 RMK A01 T01261084  RH  022%=      5-min Rain = 0
KFAS 242315Z 13010KT 12/M09 A3011 RMK A01 T01241086  RH  022%=      5-min Rain = 0
KFAS 242320Z 13009G14KT 12/M09 A3011 RMK A01 T01221086  RH  022%=      5-min Rain = 0
KFAS 242325Z 13011KT 12/M08 A3011 RMK A01 T01231084  RH  023%=      5-min Rain = 0
KFAS 242330Z 13010KT 12/M09 A3011 RMK A01 T01211085  RH  023%=      5-min Rain = 0
KFAS 242335Z 13009G14KT 12/M09 A3011 RMK A01 T01211085  RH  023%=      5-min Rain = 0
KFAS 242340Z 13012KT 12/M08 A3012 RMK A01 T01201083  RH  023%=      5-min Rain = 0
KFAS 242345Z 14010KT 12/M08 A3011 RMK A01 T01181083  RH  024%=      5-min Rain = 0
KFAS 242350Z 14009KT 12/M08 A3011 RMK A01 T01191081  RH  024%=      5-min Rain = 0
KFAS 242355Z 14009KT 12/M08 A3012 RMK A01 T01171079  RH  024%=      5-min Rain = 0
KFAS 250000Z 13009KT 12/M08 A3012 RMK A01 T01161080  RH  025%=      5-min Rain = 0
KFAS 250005Z 13011KT 11/M08 A3012 RMK A01 T01141079  RH  025%=      5-min Rain = 0
KFAS 250010Z 12010KT 11/M08 A3012 RMK A01 T01121078  RH  025%=      5-min Rain = 0
KFAS 250015Z 12009KT 11/M08 A3012 RMK A01 T01101078  RH  026%=      5-min Rain = 0
KFAS 250020Z 11008KT 11/M08 A3012 RMK A01 T01071075  RH  027%=      5-min Rain = 0
KFAS 250025Z 11010KT 10/M08 A3013 RMK A01 T01041075  RH  028%=      5-min Rain = 0
KFAS 250030Z 11009KT 10/M07 A3013 RMK A01 T01011074  RH  028%=      5-min Rain = 0
KFAS 250035Z 11009KT 10/M07 A3013 RMK A01 T00961073  RH  030%=      5-min Rain = 0
KFAS 250040Z 11008KT 09/M08 A3013 RMK A01 T00921075  RH  030%=      5-min Rain = 0
KFAS 250045Z 11008KT 09/M08 A3013 RMK A01 T00871075  RH  031%=      5-min Rain = 0
KFAS 250050Z 11008KT 08/M08 A3013 RMK A01 T00821075  RH  032%=      5-min Rain = 0
KFAS 250055Z 11008KT 08/M07 A3014 RMK A01 T00781074  RH  033%=      5-min Rain = 0
KFAS 250100Z 11008KT 07/M08 A3014 RMK A01 T00741075  RH  034%=      5-min Rain = 0
KFAS 250105Z 10008KT 07/M08 A3014 RMK A01 T00691076  RH  035%=      5-min Rain = 0
KFAS 250110Z 11008KT 07/M08 A3014 RMK A01 T00671077  RH  035%=      5-min Rain = 0
KFAS 250115Z 10008KT 07/M08 A3014 RMK A01 T00671077  RH  035%=      5-min Rain = 0
KFAS 250120Z 10009KT 06/M08 A3014 RMK A01 T00631077  RH  036%=      5-min Rain = 0
KFAS 250125Z 11009KT 06/M08 A3014 RMK A01 T00581076  RH  037%=      5-min Rain = 0
KFAS 250130Z 10009KT 06/M08 A3014 RMK A01 T00571077  RH  037%=      5-min Rain = 0
KFAS 250135Z 10010KT 06/M08 A3014 RMK A01 T00611079  RH  036%=      5-min Rain = 0
KFAS 250140Z 10009KT 06/M08 A3014 RMK A01 T00591079  RH  036%=      5-min Rain = 0
KFAS 250145Z 10009KT 06/M08 A3014 RMK A01 T00561079  RH  037%=      5-min Rain = 0
KFAS 250150Z 10009KT 06/M08 A3015 RMK A01 T00581081  RH  036%=      5-min Rain = 0
KFAS 250155Z 10010KT 06/M08 A3015 RMK A01 T00611082  RH  035%=      5-min Rain = 0
KFAS 250200Z 10009KT 06/M08 A3015 RMK A01 T00591084  RH  035%=      5-min Rain = 0
KFAS 250205Z 09008KT 05/M09 A3015 RMK A01 T00531085  RH  036%=      5-min Rain = 0
KFAS 250210Z 09009KT 05/M09 A3015 RMK A01 T00481088  RH  036%=      5-min Rain = 0
KFAS 250215Z 09010KT 05/M09 A3015 RMK A01 T00461088  RH  037%=      5-min Rain = 0
KFAS 250220Z 10010KT 05/M09 A3015 RMK A01 T00471087  RH  037%=      5-min Rain = 0
KFAS 250225Z 10010KT 05/M09 A3015 RMK A01 T00481087  RH  037%=      5-min Rain = 0
KFAS 250230Z 09010KT 05/M09 A3015 RMK A01 T00481087  RH  037%=      5-min Rain = 0
KFAS 250235Z 09010KT 05/M09 A3015 RMK A01 T00451088  RH  037%=      5-min Rain = 0
KFAS 250240Z 09010KT 04/M09 A3016 RMK A01 T00421089  RH  038%=      5-min Rain = 0
KFAS 250245Z 09010KT 04/M09 A3016 RMK A01 T00431090  RH  037%=      5-min Rain = 0
KFAS 250250Z 09010KT 04/M09 A3016 RMK A01 T00391091  RH  038%=      5-min Rain = 0
KFAS 250255Z 09010KT 04/M09 A3016 RMK A01 T00381091  RH  038%=      5-min Rain = 0
KFAS 250300Z 10010KT 04/M09 A3016 RMK A01 T00371091  RH  038%=      5-min Rain = 0
KFAS 250305Z 10011KT 04/M09 A3016 RMK A01 T00391091  RH  038%=      5-min Rain = 0
KFAS 250310Z 10011KT 04/M09 A3016 RMK A01 T00381090  RH  039%=      5-min Rain = 0
KFAS 250315Z 10011KT 04/M09 A3016 RMK A01 T00381090  RH  038%=      5-min Rain = 0
KFAS 250320Z 10011KT 04/M09 A3016 RMK A01 T00391091  RH  038%=      5-min Rain = 0
KFAS 250325Z 10012KT 04/M09 A3016 RMK A01 T00401092  RH  037%=      5-min Rain = 0
KFAS 250330Z 10012KT 04/M09 A3016 RMK A01 T00401092  RH  037%=      5-min Rain = 0
KFAS 250335Z 10012KT 04/M09 A3017 RMK A01 T00391092  RH  038%=      5-min Rain = 0
KFAS 250340Z 10011KT 04/M09 A3017 RMK A01 T00371093  RH  038%=      5-min Rain = 0
KFAS 250345Z 10011KT 04/M09 A3017 RMK A01 T00361093  RH  038%=      5-min Rain = 0
KFAS 250350Z 10010KT 03/M09 A3017 RMK A01 T00331093  RH  039%=      5-min Rain = 0
KFAS 250355Z 11010KT 03/M09 A3017 RMK A01 T00301092  RH  040%=      5-min Rain = 0
KFAS 250400Z 10010KT 03/M09 A3017 RMK A01 T00281092  RH  041%=      5-min Rain = 0
KFAS 250405Z 10011KT 03/M09 A3017 RMK A01 T00281092  RH  041%=      5-min Rain = 0
KFAS 250410Z 10011KT 03/M09 A3017 RMK A01 T00311092  RH  040%=      5-min Rain = 0
KFAS 250415Z 10011KT 03/M09 A3017 RMK A01 T00331093  RH  039%=      5-min Rain = 0
KFAS 250420Z 10011KT 03/M09 A3017 RMK A01 T00341093  RH  039%=      5-min Rain = 0
KFAS 250425Z 10012KT 03/M09 A3017 RMK A01 T00331093  RH  039%=      5-min Rain = 0
KFAS 250430Z 10011KT 03/M09 A3017 RMK A01 T00311092  RH  040%=      5-min Rain = 0
KFAS 250435Z 10011KT 03/M09 A3018 RMK A01 T00311092  RH  040%=      5-min Rain = 0
KFAS 250440Z 08010KT 03/M09 A3018 RMK A01 T00301093  RH  040%=      5-min Rain = 0
KFAS 250445Z 08011KT 03/M09 A3018 RMK A01 T00261094  RH  041%=      5-min Rain = 0
KFAS 250450Z 09011KT 02/M10 A3018 RMK A01 T00231095  RH  041%=      5-min Rain = 0
KFAS 250455Z 09011KT 02/M10 A3018 RMK A01 T00221095  RH  041%=      5-min Rain = 0
KFAS 250500Z 09011KT 02/M10 A3018 RMK A01 T00201096  RH  042%=      5-min Rain = 0
KFAS 250505Z 09010KT 02/M10 A3018 RMK A01 T00181096  RH  042%=      5-min Rain = 0
KFAS 250510Z 09010KT 02/M10 A3018 RMK A01 T00151096  RH  043%=      5-min Rain = 0
KFAS 250515Z 09010KT 01/M10 A3018 RMK A01 T00141097  RH  043%=      5-min Rain = 0
KFAS 250520Z 10010KT 01/M10 A3018 RMK A01 T00121097  RH  044%=      5-min Rain = 0
KFAS 250525Z 10011KT 01/M10 A3018 RMK A01 T00141096  RH  044%=      5-min Rain = 0
KFAS 250530Z 10010KT 02/M10 A3018 RMK A01 T00151095  RH  044%=      5-min Rain = 0
KFAS 250535Z 09010KT 02/M10 A3018 RMK A01 T00151095  RH  044%=      5-min Rain = 0
KFAS 250540Z 09009KT 01/M10 A3019 RMK A01 T00141096  RH  044%=      5-min Rain = 0
KFAS 250545Z 09009KT 01/M10 A3019 RMK A01 T00111097  RH  044%=      5-min Rain = 0
KFAS 250550Z 10010KT 01/M10 A3019 RMK A01 T00131098  RH  043%=      5-min Rain = 0
KFAS 250555Z 10012KT 02/M10 A3019 RMK A01 T00161098  RH  042%=      5-min Rain = 0

Page generated in 0.0082 seconds.